Time;durP1;ratioP1;P1;durP2;ratioP2;P2;SDS_P1;SDS_P2;PMS_P1;PMS_P2;Temp;Humidity;BMP_temperature;BMP_pressure;BME280_temperature;BME280_humidity;BME280_pressure;Samples;Min_cycle;Max_cycle;Signal;HPM_P1;HPM_P2
2023/12/16 00:01:51;;;;;;;40.03;17.92;;;7.40;99.90;;;;;;5042531;28;20486;-46
2023/12/16 00:04:17;;;;;;;50.95;19.63;;;7.40;99.90;;;;;;5043345;28;20009;-44
2023/12/16 00:06:42;;;;;;;42.83;18.15;;;7.40;99.90;;;;;;5043261;28;20532;-43
2023/12/16 00:09:08;;;;;;;48.00;20.17;;;7.40;99.90;;;;;;5042927;28;20021;-46
2023/12/16 00:11:33;;;;;;;39.55;18.23;;;7.40;99.90;;;;;;5044760;28;20553;-47
2023/12/16 00:13:59;;;;;;;44.60;17.40;;;7.40;99.90;;;;;;5041616;28;20022;-43
2023/12/16 00:16:27;;;;;;;51.70;18.30;;;7.40;99.90;;;;;;5044238;28;20393;-46
2023/12/16 00:18:53;;;;;;;52.85;18.83;;;7.40;99.90;;;;;;5042457;28;20383;-43
2023/12/16 00:21:19;;;;;;;38.80;17.10;;;7.40;99.90;;;;;;5043961;28;20029;-45
2023/12/16 00:23:44;;;;;;;41.63;17.92;;;7.40;99.90;;;;;;5043637;28;20063;-43
2023/12/16 00:26:10;;;;;;;36.28;15.82;;;7.40;99.90;;;;;;5042082;28;20037;-46
2023/12/16 00:28:36;;;;;;;44.15;16.70;;;7.40;99.90;;;;;;5044442;28;20025;-47
2023/12/16 00:31:01;;;;;;;43.83;18.85;;;7.40;99.90;;;;;;5041327;28;20044;-45
2023/12/16 00:33:27;;;;;;;36.70;16.02;;;7.50;99.90;;;;;;5044776;28;20032;-44
2023/12/16 00:35:52;;;;;;;40.72;16.80;;;7.50;99.90;;;;;;5036821;28;20082;-43
2023/12/16 00:38:18;;;;;;;38.90;16.50;;;7.40;99.90;;;;;;5044017;28;20030;-46
2023/12/16 00:40:44;;;;;;;39.85;16.27;;;7.40;99.90;;;;;;5044006;28;20041;-47
2023/12/16 00:43:09;;;;;;;41.17;17.23;;;7.40;99.90;;;;;;5037895;28;20034;-43
2023/12/16 00:45:35;;;;;;;39.50;16.67;;;7.40;99.90;;;;;;5029191;28;20022;-45
2023/12/16 00:48:00;;;;;;;41.25;15.93;;;7.40;99.90;;;;;;5029497;28;20032;-47
2023/12/16 00:50:26;;;;;;;32.92;15.52;;;7.40;99.90;;;;;;5029640;28;20030;-46
2023/12/16 00:52:52;;;;;;;32.75;15.18;;;7.40;99.90;;;;;;5029220;28;20072;-44
2023/12/16 00:55:17;;;;;;;40.00;13.85;;;7.40;99.90;;;;;;5029157;28;20574;-44
2023/12/16 00:57:43;;;;;;;54.53;16.45;;;7.50;99.90;;;;;;5029391;28;20037;-46
2023/12/16 01:00:09;;;;;;;36.38;13.80;;;7.50;99.90;;;;;;5030497;28;20017;-45
2023/12/16 01:02:36;;;;;;;38.35;15.80;;;7.50;99.90;;;;;;5044392;28;20025;-44
2023/12/16 01:05:01;;;;;;;35.72;15.32;;;7.50;99.90;;;;;;5041444;28;20124;-43
2023/12/16 01:07:27;;;;;;;34.25;14.68;;;7.50;99.90;;;;;;5044544;28;20077;-43
2023/12/16 01:09:53;;;;;;;35.58;13.95;;;7.50;99.90;;;;;;5042888;28;20096;-44
2023/12/16 01:12:18;;;;;;;39.05;14.07;;;7.40;99.90;;;;;;5043894;28;21108;-43
2023/12/16 01:14:44;;;;;;;38.05;14.98;;;7.50;99.90;;;;;;5044296;28;20494;-46
2023/12/16 01:17:10;;;;;;;39.92;15.02;;;7.40;99.90;;;;;;5042327;28;20026;-45
2023/12/16 01:19:35;;;;;;;39.72;14.63;;;7.40;99.90;;;;;;5044294;28;20508;-43
2023/12/16 01:22:01;;;;;;;34.60;14.43;;;7.40;99.90;;;;;;5024453;28;20098;-45
2023/12/16 01:24:27;;;;;;;28.60;13.75;;;7.40;99.90;;;;;;5044442;28;20068;-44
2023/12/16 01:26:53;;;;;;;43.47;14.93;;;7.50;99.90;;;;;;5039754;28;20053;-46
2023/12/16 01:29:18;;;;;;;40.28;15.18;;;7.40;99.90;;;;;;5043557;28;20080;-47
2023/12/16 01:31:44;;;;;;;48.08;14.90;;;7.40;99.90;;;;;;5042666;28;20052;-45
2023/12/16 01:34:10;;;;;;;32.95;13.70;;;7.40;99.90;;;;;;5040306;28;20032;-45
2023/12/16 01:36:35;;;;;;;40.67;14.98;;;7.40;99.90;;;;;;5043062;28;20035;-46
2023/12/16 01:39:01;;;;;;;35.50;14.23;;;7.40;99.90;;;;;;5034549;28;20490;-44
2023/12/16 01:41:26;;;;;;;36.58;13.82;;;7.40;99.90;;;;;;5044155;28;20028;-45
2023/12/16 01:43:52;;;;;;;30.55;13.90;;;7.40;99.90;;;;;;5035659;28;20035;-43
2023/12/16 01:46:20;;;;;;;33.10;13.65;;;7.40;99.90;;;;;;5040903;28;20029;-46
2023/12/16 01:48:46;;;;;;;35.67;13.50;;;7.40;99.90;;;;;;5041355;28;20017;-45
2023/12/16 01:51:14;;;;;;;37.20;13.60;;;7.40;99.90;;;;;;5042887;28;20489;-43
2023/12/16 01:53:41;;;;;;;40.88;13.88;;;7.40;99.90;;;;;;5044854;28;20029;-43
2023/12/16 01:56:08;;;;;;;38.20;13.35;;;7.40;99.90;;;;;;5042085;28;20033;-48
2023/12/16 01:58:35;;;;;;;29.90;12.70;;;7.30;99.90;;;;;;5044565;28;20033;-47
2023/12/16 02:01:01;;;;;;;35.22;13.80;;;7.30;99.90;;;;;;5036203;28;20082;-47
2023/12/16 02:03:28;;;;;;;27.33;12.52;;;7.30;99.90;;;;;;5044611;28;20487;-44
2023/12/16 02:05:55;;;;;;;29.88;13.15;;;7.20;99.90;;;;;;5042078;28;20036;-44
2023/12/16 02:08:21;;;;;;;36.22;12.20;;;7.20;99.90;;;;;;5034067;28;20539;-45
2023/12/16 02:10:46;;;;;;;34.38;12.60;;;7.20;99.90;;;;;;5044898;28;20032;-43
2023/12/16 02:13:12;;;;;;;30.77;12.85;;;7.20;99.90;;;;;;5036739;28;20033;-46
2023/12/16 02:15:38;;;;;;;34.28;13.07;;;7.20;99.90;;;;;;5043563;28;20032;-44
2023/12/16 02:18:04;;;;;;;30.73;12.13;;;7.20;99.90;;;;;;5043210;28;20075;-48
2023/12/16 02:20:29;;;;;;;49.03;12.85;;;7.20;99.90;;;;;;5027801;28;20033;-47
2023/12/16 02:22:55;;;;;;;36.60;12.93;;;7.20;99.90;;;;;;5041421;28;20037;-44
2023/12/16 02:25:21;;;;;;;43.42;13.85;;;7.10;99.90;;;;;;5041389;28;20048;-46
2023/12/16 02:27:47;;;;;;;32.28;12.40;;;7.10;99.90;;;;;;5049127;28;20017;-47
2023/12/16 02:30:12;;;;;;;39.08;13.93;;;7.10;99.90;;;;;;5045998;28;20220;-47
2023/12/16 02:32:38;;;;;;;43.25;14.57;;;7.10;99.90;;;;;;5049083;28;20024;-48
2023/12/16 02:35:04;;;;;;;33.97;13.57;;;7.10;99.90;;;;;;5047318;28;20025;-43
2023/12/16 02:37:30;;;;;;;38.65;13.82;;;7.10;99.90;;;;;;5031679;28;20028;-45
2023/12/16 02:39:55;;;;;;;35.40;12.30;;;7.10;99.90;;;;;;5048666;28;20029;-48
2023/12/16 02:42:21;;;;;;;38.63;13.27;;;7.10;99.90;;;;;;5049012;28;20025;-48
2023/12/16 02:44:47;;;;;;;36.33;12.55;;;7.10;99.90;;;;;;5048981;28;20478;-44
2023/12/16 02:47:13;;;;;;;36.60;13.27;;;7.10;99.90;;;;;;5047465;28;20021;-44
2023/12/16 02:49:38;;;;;;;37.20;12.10;;;7.10;99.90;;;;;;5049496;28;20527;-46
2023/12/16 02:52:04;;;;;;;33.15;13.00;;;7.10;99.90;;;;;;5048164;28;20433;-46
2023/12/16 02:54:30;;;;;;;41.97;13.43;;;7.10;99.90;;;;;;5048859;28;20033;-48
2023/12/16 02:56:56;;;;;;;38.67;12.65;;;7.10;99.90;;;;;;5047910;28;20052;-45
2023/12/16 02:59:22;;;;;;;33.67;12.13;;;7.10;99.90;;;;;;5049072;28;20583;-46
2023/12/16 03:01:48;;;;;;;41.42;13.35;;;7.10;99.90;;;;;;5028503;28;20029;-46
2023/12/16 03:04:13;;;;;;;31.05;11.98;;;7.10;99.90;;;;;;5047352;28;20506;-45
2023/12/16 03:06:45;;;;;;;28.33;11.15;;;7.10;99.90;;;;;;5048838;28;20029;-47
2023/12/16 03:09:11;;;;;;;32.20;12.20;;;7.10;99.90;;;;;;5048038;28;20033;-44
2023/12/16 03:11:37;;;;;;;33.30;11.20;;;7.10;99.90;;;;;;5049041;28;20043;-44
2023/12/16 03:14:03;;;;;;;30.30;12.45;;;7.10;99.90;;;;;;5029821;28;20111;-44
2023/12/16 03:16:30;;;;;;;39.75;12.57;;;7.10;99.90;;;;;;5030776;28;20553;-45
2023/12/16 03:18:55;;;;;;;37.13;10.68;;;7.10;99.90;;;;;;5030852;28;20486;-45
2023/12/16 03:21:21;;;;;;;37.08;13.18;;;7.10;99.90;;;;;;5048798;28;20048;-44
2023/12/16 03:23:47;;;;;;;41.00;12.25;;;7.10;99.90;;;;;;5049286;28;20021;-45
2023/12/16 03:26:12;;;;;;;32.45;12.93;;;7.10;99.90;;;;;;5048071;28;20026;-45
2023/12/16 03:28:38;;;;;;;35.28;11.00;;;7.10;99.90;;;;;;5049188;28;20021;-45
2023/12/16 03:31:04;;;;;;;38.88;11.65;;;7.10;99.90;;;;;;5030152;28;20013;-47
2023/12/16 03:33:29;;;;;;;36.72;11.02;;;7.10;99.90;;;;;;5035596;28;20037;-45
2023/12/16 03:35:55;;;;;;;34.50;11.23;;;7.10;99.90;;;;;;5048297;28;20504;-46
2023/12/16 03:38:20;;;;;;;31.17;10.35;;;7.10;99.90;;;;;;5030603;28;20025;-46
2023/12/16 03:40:46;;;;;;;33.90;10.75;;;7.10;99.90;;;;;;5049080;28;20087;-44
2023/12/16 03:43:12;;;;;;;26.42;10.13;;;7.10;99.90;;;;;;5036261;28;20472;-47
2023/12/16 03:45:37;;;;;;;27.80;9.32;;;7.10;99.90;;;;;;5028486;28;20072;-47
2023/12/16 03:48:03;;;;;;;23.88;9.20;;;7.10;99.90;;;;;;5030552;28;20425;-45
2023/12/16 03:50:29;;;;;;;23.35;9.07;;;7.10;99.90;;;;;;5030730;28;20026;-47
2023/12/16 03:52:54;;;;;;;27.00;9.18;;;7.10;99.90;;;;;;5025492;28;20057;-44
2023/12/16 03:55:20;;;;;;;21.45;7.78;;;7.10;99.90;;;;;;5029950;28;20060;-45
2023/12/16 03:57:46;;;;;;;31.50;10.10;;;7.20;99.90;;;;;;5029305;28;20060;-45
2023/12/16 04:00:12;;;;;;;27.17;8.65;;;7.20;99.90;;;;;;5030165;28;20036;-45
2023/12/16 04:02:37;;;;;;;26.65;8.95;;;7.20;99.90;;;;;;5030341;28;20513;-48
2023/12/16 04:05:03;;;;;;;26.52;8.43;;;7.20;99.90;;;;;;5030089;28;20101;-45
2023/12/16 04:07:29;;;;;;;22.60;9.02;;;7.20;99.90;;;;;;5030814;28;20074;-46
2023/12/16 04:09:55;;;;;;;21.42;8.38;;;7.20;99.90;;;;;;5030585;28;20683;-45
2023/12/16 04:12:20;;;;;;;26.25;8.52;;;7.20;99.90;;;;;;5030144;28;20139;-45
2023/12/16 04:14:46;;;;;;;26.48;8.98;;;7.20;99.90;;;;;;5029881;28;20239;-45
2023/12/16 04:17:12;;;;;;;24.75;9.73;;;7.20;99.90;;;;;;5029851;28;20033;-45
2023/12/16 04:19:38;;;;;;;29.42;10.52;;;7.20;99.90;;;;;;5028613;28;20057;-45
2023/12/16 04:22:04;;;;;;;22.38;8.68;;;7.20;99.90;;;;;;5030117;28;20021;-45
2023/12/16 04:24:30;;;;;;;28.50;8.68;;;7.20;99.90;;;;;;5029933;28;20096;-44
2023/12/16 04:26:55;;;;;;;25.15;8.40;;;7.20;99.90;;;;;;5029433;28;20021;-45
2023/12/16 04:29:21;;;;;;;22.80;9.30;;;7.20;99.90;;;;;;5029598;28;20099;-44
2023/12/16 04:31:47;;;;;;;29.33;9.20;;;7.20;99.90;;;;;;5030263;28;20021;-46
2023/12/16 04:34:12;;;;;;;20.52;8.55;;;7.20;99.90;;;;;;5029793;28;20087;-44
2023/12/16 04:36:38;;;;;;;16.52;7.93;;;7.20;99.90;;;;;;5029597;28;20026;-44
2023/12/16 04:39:07;;;;;;;20.38;7.78;;;7.20;99.90;;;;;;5029795;28;20382;-44
2023/12/16 04:41:33;;;;;;;22.27;8.93;;;7.20;99.90;;;;;;5029582;28;20525;-45
2023/12/16 04:43:59;;;;;;;20.98;7.85;;;7.20;99.90;;;;;;5027220;28;20092;-45
2023/12/16 04:46:25;;;;;;;18.48;7.47;;;7.20;99.90;;;;;;5028105;28;20104;-44
2023/12/16 04:48:51;;;;;;;26.20;7.90;;;7.20;99.90;;;;;;5028820;28;20092;-45
2023/12/16 04:51:17;;;;;;;23.20;7.80;;;7.20;99.90;;;;;;5029108;28;20025;-45
2023/12/16 04:53:42;;;;;;;18.38;7.90;;;7.20;99.90;;;;;;5028601;28;20043;-45
2023/12/16 04:56:08;;;;;;;20.65;6.82;;;7.20;99.90;;;;;;5028657;28;20425;-45
2023/12/16 04:58:34;;;;;;;25.80;7.10;;;7.20;99.90;;;;;;5028794;28;20425;-45
2023/12/16 05:01:00;;;;;;;19.70;6.53;;;7.20;99.90;;;;;;5026808;28;20039;-44
2023/12/16 05:03:26;;;;;;;23.67;6.68;;;7.20;99.90;;;;;;5010834;28;20538;-45
2023/12/16 05:05:51;;;;;;;20.30;6.85;;;7.20;99.90;;;;;;5028413;28;20022;-44
2023/12/16 05:08:19;;;;;;;17.15;6.60;;;7.30;99.90;;;;;;5028521;28;20096;-45
2023/12/16 05:10:47;;;;;;;23.70;7.05;;;7.20;99.90;;;;;;5029300;28;20087;-45
2023/12/16 05:13:14;;;;;;;18.77;7.13;;;7.20;99.90;;;;;;5028935;28;20083;-45
2023/12/16 05:15:41;;;;;;;19.38;6.53;;;7.20;99.90;;;;;;5027980;28;20352;-48
2023/12/16 05:18:07;;;;;;;20.60;6.68;;;7.20;99.90;;;;;;5011098;28;20032;-48
2023/12/16 05:20:33;;;;;;;19.77;6.75;;;7.20;99.90;;;;;;5028585;28;20029;-47
2023/12/16 05:22:59;;;;;;;21.95;7.30;;;7.20;99.90;;;;;;5027319;28;20071;-46
2023/12/16 05:25:28;;;;;;;16.15;6.25;;;7.20;99.90;;;;;;5027655;28;20026;-45
2023/12/16 05:27:54;;;;;;;18.17;6.38;;;7.20;99.90;;;;;;5028109;28;20026;-45
2023/12/16 05:30:19;;;;;;;17.05;6.70;;;7.20;99.90;;;;;;5027867;28;20032;-45
2023/12/16 05:32:45;;;;;;;20.27;6.45;;;7.20;99.90;;;;;;5013980;28;20463;-47
2023/12/16 05:35:11;;;;;;;24.35;6.07;;;7.20;99.90;;;;;;5025077;28;20101;-46
2023/12/16 05:37:36;;;;;;;23.42;6.28;;;7.20;99.90;;;;;;5028910;28;20038;-46
2023/12/16 05:40:03;;;;;;;19.90;5.88;;;7.20;99.90;;;;;;5028401;28;20718;-45
2023/12/16 05:42:29;;;;;;;18.30;5.90;;;7.20;99.90;;;;;;5028210;28;20514;-44
2023/12/16 05:44:55;;;;;;;21.15;5.35;;;7.20;99.90;;;;;;5028066;28;20189;-45
2023/12/16 05:47:20;;;;;;;20.67;5.32;;;7.20;99.90;;;;;;5028090;28;20513;-44
2023/12/16 05:49:46;;;;;;;19.67;6.82;;;7.30;99.90;;;;;;5028440;28;20026;-44
2023/12/16 05:52:12;;;;;;;15.57;4.53;;;7.20;99.90;;;;;;5028058;28;20122;-44
2023/12/16 05:54:38;;;;;;;17.30;5.47;;;7.20;99.90;;;;;;5028216;28;20040;-47
2023/12/16 05:57:04;;;;;;;16.00;5.22;;;7.20;99.90;;;;;;5010739;28;20029;-44
2023/12/16 05:59:29;;;;;;;15.32;4.28;;;7.20;99.90;;;;;;5027811;28;20025;-43
2023/12/16 06:01:55;;;;;;;18.67;4.72;;;7.20;99.90;;;;;;5029491;28;20544;-44
2023/12/16 06:04:21;;;;;;;15.82;4.20;;;7.20;99.90;;;;;;5011664;28;20025;-45
2023/12/16 06:06:47;;;;;;;16.15;5.32;;;7.20;99.90;;;;;;5028990;28;20540;-44
2023/12/16 06:09:13;;;;;;;13.75;4.53;;;7.20;99.90;;;;;;5029981;28;20021;-44
2023/12/16 06:11:38;;;;;;;15.35;4.53;;;7.20;99.90;;;;;;5029317;28;20060;-43
2023/12/16 06:14:04;;;;;;;13.13;4.20;;;7.20;99.90;;;;;;5030091;28;20227;-46
2023/12/16 06:16:30;;;;;;;17.65;5.70;;;7.20;99.90;;;;;;5010072;28;20029;-44
2023/12/16 06:18:55;;;;;;;14.32;4.82;;;7.20;99.90;;;;;;5028937;28;20022;-44
2023/12/16 06:21:21;;;;;;;22.00;5.13;;;7.20;99.90;;;;;;5011079;28;20025;-45
2023/12/16 06:23:47;;;;;;;18.00;4.13;;;7.20;99.90;;;;;;5027479;28;20022;-44
2023/12/16 06:26:12;;;;;;;15.15;4.30;;;7.20;99.90;;;;;;5026810;28;20021;-44
2023/12/16 06:28:38;;;;;;;18.48;5.28;;;7.30;99.90;;;;;;5027483;28;20021;-44
2023/12/16 06:31:04;;;;;;;11.90;3.92;;;7.30;99.90;;;;;;5027355;28;20021;-44
2023/12/16 06:33:29;;;;;;;14.88;4.25;;;7.20;99.90;;;;;;5027352;28;20025;-45
2023/12/16 06:35:55;;;;;;;9.63;4.60;;;7.20;99.90;;;;;;5026780;28;20029;-43
2023/12/16 06:38:20;;;;;;;22.88;4.75;;;7.20;99.90;;;;;;5027157;28;20017;-43
2023/12/16 06:40:46;;;;;;;16.33;4.75;;;7.20;99.90;;;;;;5027346;28;20025;-43
2023/12/16 06:43:12;;;;;;;12.57;4.35;;;7.20;99.90;;;;;;5027297;28;20199;-43
2023/12/16 06:45:40;;;;;;;19.55;4.07;;;7.20;99.90;;;;;;5029437;28;20619;-43
2023/12/16 06:48:06;;;;;;;16.60;4.60;;;7.20;99.90;;;;;;5030604;28;20139;-43
2023/12/16 06:50:31;;;;;;;15.63;4.47;;;7.20;99.90;;;;;;5030147;28;20104;-45
2023/12/16 06:52:57;;;;;;;16.08;4.32;;;7.20;99.90;;;;;;5029927;28;20028;-43
2023/12/16 06:55:22;;;;;;;12.57;4.18;;;7.20;99.90;;;;;;5011472;28;20091;-44
2023/12/16 06:57:48;;;;;;;19.15;5.25;;;7.20;99.90;;;;;;5029536;28;20101;-44
2023/12/16 07:00:14;;;;;;;17.63;4.50;;;7.20;99.90;;;;;;5013799;28;20018;-44
2023/12/16 07:02:43;;;;;;;15.90;4.22;;;7.20;99.90;;;;;;5028944;28;20053;-43
2023/12/16 07:05:10;;;;;;;18.25;6.20;;;7.20;99.90;;;;;;5029844;28;20014;-44
2023/12/16 07:07:36;;;;;;;29.63;5.40;;;7.20;99.90;;;;;;5029405;28;20068;-44
2023/12/16 07:10:04;;;;;;;23.92;5.15;;;7.20;99.90;;;;;;5034122;28;20017;-44
2023/12/16 07:12:29;;;;;;;22.00;4.60;;;7.20;99.90;;;;;;5033018;28;20606;-45
2023/12/16 07:14:55;;;;;;;20.80;5.15;;;7.20;99.90;;;;;;5015620;28;20128;-47
2023/12/16 07:17:20;;;;;;;15.80;5.53;;;7.20;99.90;;;;;;5015496;28;20360;-46
2023/12/16 07:19:46;;;;;;;22.83;6.10;;;7.20;99.90;;;;;;5033713;28;20064;-42
2023/12/16 07:22:16;;;;;;;18.83;5.57;;;7.20;99.90;;;;;;5033307;28;20079;-44
2023/12/16 07:24:42;;;;;;;21.70;5.75;;;7.20;99.90;;;;;;5033925;28;20471;-45
2023/12/16 07:27:07;;;;;;;16.65;5.63;;;7.30;99.90;;;;;;5034870;28;20040;-46
2023/12/16 07:29:34;;;;;;;19.13;6.20;;;7.20;99.90;;;;;;5034099;28;20101;-43
2023/12/16 07:32:00;;;;;;;14.02;4.72;;;7.20;99.90;;;;;;5033636;28;20453;-44
2023/12/16 07:34:26;;;;;;;21.23;5.78;;;7.20;99.90;;;;;;5031137;28;20021;-43
2023/12/16 07:36:52;;;;;;;21.75;5.95;;;7.30;99.90;;;;;;5033312;28;20021;-45
2023/12/16 07:39:18;;;;;;;22.88;6.50;;;7.20;99.90;;;;;;5035377;28;20109;-44
2023/12/16 07:41:44;;;;;;;18.35;6.35;;;7.20;99.90;;;;;;5033709;28;20453;-45
2023/12/16 07:44:11;;;;;;;18.30;5.22;;;7.30;99.90;;;;;;5033544;28;20021;-44
2023/12/16 07:46:39;;;;;;;18.55;5.80;;;7.20;99.90;;;;;;5015822;28;20021;-44
2023/12/16 07:49:05;;;;;;;23.25;6.97;;;7.30;99.90;;;;;;5034367;28;20044;-43
2023/12/16 07:51:30;;;;;;;20.42;6.30;;;7.20;99.90;;;;;;5034778;28;20028;-43
2023/12/16 07:53:56;;;;;;;16.98;6.25;;;7.30;99.90;;;;;;5034085;28;20026;-43
2023/12/16 07:56:23;;;;;;;30.17;6.88;;;7.20;99.90;;;;;;5035427;28;20020;-44
2023/12/16 07:58:52;;;;;;;19.30;5.38;;;7.30;99.90;;;;;;5034111;28;20048;-44
2023/12/16 08:01:18;;;;;;;23.58;5.68;;;7.30;99.90;;;;;;5034305;28;20055;-44
2023/12/16 08:03:45;;;;;;;29.55;6.30;;;7.20;99.90;;;;;;5033933;28;20036;-44
2023/12/16 08:06:13;;;;;;;17.70;5.22;;;7.30;99.90;;;;;;5032600;28;20116;-43
2023/12/16 08:08:40;;;;;;;17.10;5.63;;;7.30;99.90;;;;;;5027175;28;20018;-42
2023/12/16 08:11:07;;;;;;;22.60;6.13;;;7.30;99.90;;;;;;5011496;28;20132;-44
2023/12/16 08:13:33;;;;;;;15.23;6.13;;;7.30;99.90;;;;;;5033104;28;20025;-42
2023/12/16 08:15:59;;;;;;;23.17;7.00;;;7.40;99.90;;;;;;5032455;28;20037;-43
2023/12/16 08:18:25;;;;;;;18.52;5.68;;;7.40;99.90;;;;;;5017693;28;20024;-43
2023/12/16 08:20:50;;;;;;;20.85;6.40;;;7.40;99.90;;;;;;5033571;28;20018;-43
2023/12/16 08:23:17;;;;;;;17.98;4.78;;;7.50;99.90;;;;;;5035345;28;20033;-46
2023/12/16 08:25:42;;;;;;;20.70;6.15;;;7.40;99.90;;;;;;5033280;28;20017;-42
2023/12/16 08:28:08;;;;;;;11.23;4.38;;;7.40;99.90;;;;;;5034882;28;20079;-44
2023/12/16 08:30:34;;;;;;;22.10;5.82;;;7.40;99.90;;;;;;5034650;28;20119;-44
2023/12/16 08:32:59;;;;;;;22.35;5.35;;;7.40;99.90;;;;;;5034200;28;20434;-46
2023/12/16 08:35:27;;;;;;;21.15;4.57;;;7.40;99.90;;;;;;5035473;28;20064;-43
2023/12/16 08:37:55;;;;;;;15.57;4.18;;;7.30;99.90;;;;;;5032471;28;20087;-43
2023/12/16 08:40:20;;;;;;;16.33;4.88;;;7.40;99.90;;;;;;5035809;28;20025;-43
2023/12/16 08:42:46;;;;;;;22.85;6.18;;;7.30;99.90;;;;;;5033781;28;20138;-47
2023/12/16 08:45:12;;;;;;;18.98;5.45;;;7.40;99.90;;;;;;5034994;28;20028;-43
2023/12/16 08:47:38;;;;;;;18.60;5.50;;;7.40;99.90;;;;;;5034071;28;20450;-43
2023/12/16 08:50:05;;;;;;;30.60;5.97;;;7.40;99.90;;;;;;5034117;28;20017;-44
2023/12/16 08:52:32;;;;;;;25.70;6.15;;;7.40;99.90;;;;;;5017167;28;20032;-44
2023/12/16 08:54:57;;;;;;;40.95;5.60;;;7.50;99.90;;;;;;5033347;28;20022;-43
2023/12/16 08:57:24;;;;;;;19.02;5.10;;;7.50;99.90;;;;;;5035816;28;20032;-43
2023/12/16 08:59:49;;;;;;;21.27;4.72;;;7.50;99.90;;;;;;5033512;28;20160;-43
2023/12/16 09:02:15;;;;;;;14.80;4.10;;;7.50;99.90;;;;;;5015321;28;20410;-43
2023/12/16 09:04:41;;;;;;;15.00;5.03;;;7.60;99.90;;;;;;5015447;28;20622;-43
2023/12/16 09:07:06;;;;;;;14.23;4.40;;;7.60;99.90;;;;;;5033884;28;20026;-44
2023/12/16 09:09:32;;;;;;;21.55;4.25;;;7.60;99.90;;;;;;5017251;28;20032;-43
2023/12/16 09:11:58;;;;;;;21.30;4.93;;;7.60;99.90;;;;;;5033626;28;20102;-45
2023/12/16 09:14:23;;;;;;;13.57;3.75;;;7.70;99.90;;;;;;5035863;28;20053;-46
2023/12/16 09:16:49;;;;;;;13.25;3.75;;;7.70;99.90;;;;;;5033283;28;20147;-46
2023/12/16 09:19:15;;;;;;;19.40;4.60;;;7.80;99.90;;;;;;5035637;28;20383;-44
2023/12/16 09:21:42;;;;;;;18.27;5.97;;;8.00;99.90;;;;;;5034424;28;20028;-43
2023/12/16 09:24:08;;;;;;;17.00;4.07;;;8.10;99.90;;;;;;5015995;28;20471;-43
2023/12/16 09:26:33;;;;;;;17.52;4.28;;;8.20;99.90;;;;;;5033538;28;20036;-42
2023/12/16 09:29:02;;;;;;;22.00;5.15;;;8.40;99.90;;;;;;5033625;28;20159;-43
2023/12/16 09:31:28;;;;;;;16.02;4.43;;;8.50;99.90;;;;;;5030523;28;20009;-43
2023/12/16 09:33:53;;;;;;;20.35;4.40;;;8.80;99.90;;;;;;5033456;28;20097;-43
2023/12/16 09:36:19;;;;;;;16.02;4.22;;;8.80;99.90;;;;;;5035662;28;20113;-45
2023/12/16 09:38:44;;;;;;;12.90;3.92;;;8.80;99.90;;;;;;5033461;28;20020;-44
2023/12/16 09:41:29;;;;;;;12.70;4.07;;;8.80;99.90;;;;;;5034795;28;20064;-44
2023/12/16 09:43:58;;;;;;;14.15;4.57;;;8.80;99.90;;;;;;5033430;28;20017;-42
2023/12/16 09:46:28;;;;;;;14.23;3.72;;;8.70;99.90;;;;;;5033111;28;20121;-44
2023/12/16 09:48:54;;;;;;;17.17;4.25;;;8.80;99.90;;;;;;5031057;28;20021;-43
2023/12/16 09:51:21;;;;;;;17.50;4.28;;;8.80;99.90;;;;;;5036652;28;20083;-42
2023/12/16 09:53:48;;;;;;;12.27;4.07;;;8.90;99.90;;;;;;5033496;28;20029;-44
2023/12/16 09:56:15;;;;;;;13.77;4.15;;;9.00;99.90;;;;;;5035501;28;20092;-47
2023/12/16 09:58:43;;;;;;;12.25;4.13;;;9.20;99.90;;;;;;5034446;28;20043;-44
2023/12/16 10:01:09;;;;;;;14.55;4.18;;;9.40;99.90;;;;;;5015757;28;20014;-44
2023/12/16 10:03:39;;;;;;;13.90;4.03;;;9.50;99.90;;;;;;5033791;28;20025;-44
2023/12/16 10:06:07;;;;;;;14.87;4.30;;;9.50;99.90;;;;;;5034015;28;20075;-42
2023/12/16 10:08:37;;;;;;;15.93;3.97;;;9.50;99.90;;;;;;5035878;28;20260;-43
2023/12/16 10:11:04;;;;;;;17.75;4.72;;;9.50;99.90;;;;;;5033814;28;20021;-45
2023/12/16 10:13:31;;;;;;;20.58;4.70;;;9.40;99.90;;;;;;5036585;28;20028;-45
2023/12/16 10:16:00;;;;;;;17.92;4.13;;;9.40;99.90;;;;;;5033282;28;20124;-44
2023/12/16 10:18:29;;;;;;;23.83;4.25;;;9.30;99.90;;;;;;5030524;28;20283;-43
2023/12/16 10:20:55;;;;;;;22.95;5.30;;;9.40;99.90;;;;;;5034479;28;20307;-44
2023/12/16 10:23:25;;;;;;;14.90;4.40;;;9.40;99.90;;;;;;5036718;28;20422;-47
2023/12/16 10:25:51;;;;;;;14.47;4.87;;;9.50;99.90;;;;;;5034100;28;20104;-44
2023/12/16 10:28:18;;;;;;;22.40;5.15;;;9.50;99.90;;;;;;5036667;28;20507;-44
2023/12/16 10:30:45;;;;;;;24.48;4.50;;;9.70;99.90;;;;;;5034641;28;20486;-47
2023/12/16 10:33:11;;;;;;;13.65;4.32;;;9.70;99.90;;;;;;5036081;28;20059;-46
2023/12/16 10:35:37;;;;;;;12.80;4.07;;;9.90;99.90;;;;;;5035514;28;20041;-43
2023/12/16 10:38:04;;;;;;;22.02;4.88;;;10.00;99.90;;;;;;5034267;28;20274;-45
2023/12/16 10:40:31;;;;;;;16.88;4.78;;;10.00;99.90;;;;;;5036743;28;20448;-43
2023/12/16 10:42:57;;;;;;;17.83;5.10;;;9.90;99.90;;;;;;5035654;28;20105;-42
2023/12/16 10:45:25;;;;;;;24.58;3.97;;;9.90;99.90;;;;;;5041120;28;20167;-46
2023/12/16 10:47:55;;;;;;;15.88;5.10;;;9.70;99.90;;;;;;5038509;28;20063;-45
2023/12/16 10:50:25;;;;;;;18.08;4.13;;;9.70;99.90;;;;;;5020634;28;20099;-44
2023/12/16 10:52:56;;;;;;;17.08;3.92;;;9.60;99.90;;;;;;5038466;28;20039;-45
2023/12/16 10:55:27;;;;;;;19.52;5.25;;;9.50;99.90;;;;;;5040729;28;20048;-45
2023/12/16 10:58:12;;;;;;;13.57;4.50;;;9.40;99.90;;;;;;5034435;28;20022;-47
2023/12/16 11:00:38;;;;;;;19.17;4.38;;;9.30;99.90;;;;;;5036191;28;20074;-45
2023/12/16 11:03:06;;;;;;;18.38;4.35;;;9.30;99.90;;;;;;5038476;28;20018;-46
2023/12/16 11:05:36;;;;;;;21.13;4.80;;;9.20;99.90;;;;;;5040366;28;20021;-45
2023/12/16 11:08:03;;;;;;;17.15;5.18;;;9.20;99.90;;;;;;5038350;28;20499;-46
2023/12/16 11:10:31;;;;;;;23.77;4.93;;;9.10;99.90;;;;;;5041609;28;20033;-43
2023/12/16 11:12:59;;;;;;;17.92;4.85;;;9.10;99.90;;;;;;5038102;28;20052;-44
2023/12/16 11:15:25;;;;;;;13.00;4.28;;;9.10;99.90;;;;;;5040815;28;20116;-44
2023/12/16 11:18:02;;;;;;;25.48;6.32;;;9.20;99.90;;;;;;5033960;28;20028;-45
2023/12/16 11:20:44;;;;;;;15.43;4.35;;;9.10;99.90;;;;;;5033882;28;20450;-45
2023/12/16 11:23:11;;;;;;;19.52;5.57;;;9.10;99.90;;;;;;5034960;28;20099;-44
2023/12/16 11:25:37;;;;;;;21.88;6.05;;;9.10;99.90;;;;;;5037750;28;20025;-44
2023/12/16 11:28:04;;;;;;;18.35;4.60;;;9.10;99.90;;;;;;5035044;28;20043;-45
2023/12/16 11:30:32;;;;;;;24.65;5.30;;;9.10;99.90;;;;;;5037840;28;20048;-47
2023/12/16 11:32:59;;;;;;;17.08;4.60;;;9.10;99.90;;;;;;5035831;28;20025;-45
2023/12/16 11:35:37;;;;;;;21.48;4.70;;;9.10;99.90;;;;;;5037263;28;20098;-44
2023/12/16 11:38:04;;;;;;;27.33;7.03;;;9.20;99.90;;;;;;5038740;28;20053;-44
2023/12/16 11:40:43;;;;;;;23.95;7.05;;;9.20;99.90;;;;;;5041548;28;20509;-45
2023/12/16 11:43:10;;;;;;;15.15;4.60;;;9.20;99.90;;;;;;5039562;28;20459;-47
2023/12/16 11:45:37;;;;;;;20.60;5.57;;;9.30;99.90;;;;;;5036169;28;20489;-45
2023/12/16 11:48:04;;;;;;;25.45;5.32;;;9.40;99.90;;;;;;5034374;28;20018;-43
2023/12/16 11:50:32;;;;;;;18.92;5.32;;;9.40;99.90;;;;;;5023535;28;20025;-45
2023/12/16 11:52:57;;;;;;;20.40;5.18;;;9.50;99.90;;;;;;5038057;28;20025;-43
2023/12/16 11:55:23;;;;;;;27.27;4.97;;;9.50;99.90;;;;;;5040628;28;20064;-46
2023/12/16 11:57:49;;;;;;;21.38;4.70;;;9.50;99.90;;;;;;5038990;28;20033;-43
2023/12/16 12:00:16;;;;;;;24.17;5.88;;;9.50;99.90;;;;;;5040303;28;20101;-45
2023/12/16 12:02:43;;;;;;;15.50;4.70;;;9.60;99.90;;;;;;5039908;28;20413;-47
2023/12/16 12:05:11;;;;;;;22.35;5.68;;;9.50;99.90;;;;;;5038902;28;20035;-43
2023/12/16 12:07:39;;;;;;;20.88;5.78;;;9.60;99.90;;;;;;5040856;28;20039;-47
2023/12/16 12:10:05;;;;;;;17.75;5.45;;;9.60;99.90;;;;;;5038955;28;20017;-44
2023/12/16 12:12:30;;;;;;;18.13;4.55;;;9.70;99.90;;;;;;5041840;28;20033;-46
2023/12/16 12:14:56;;;;;;;21.23;5.15;;;9.70;99.90;;;;;;5037783;28;20038;-44
2023/12/16 12:17:22;;;;;;;33.33;6.50;;;9.60;99.90;;;;;;5023327;28;20024;-46
2023/12/16 12:19:48;;;;;;;25.60;6.38;;;9.60;99.90;;;;;;5040149;28;20029;-46
2023/12/16 12:22:14;;;;;;;24.40;5.57;;;9.60;99.90;;;;;;5040059;28;20047;-45
2023/12/16 12:24:40;;;;;;;17.23;4.90;;;9.60;99.90;;;;;;5031446;28;20033;-44
2023/12/16 12:27:06;;;;;;;24.15;6.03;;;9.50;99.90;;;;;;5038446;28;20020;-44
2023/12/16 12:30:01;;;;;;;21.45;6.47;;;9.50;99.90;;;;;;5041581;28;20025;-43
2023/12/16 12:32:29;;;;;;;17.55;4.95;;;9.50;99.90;;;;;;5032700;28;20017;-43
2023/12/16 12:35:08;;;;;;;20.60;4.88;;;9.50;99.90;;;;;;5037898;28;20025;-45
2023/12/16 12:37:54;;;;;;;27.42;5.78;;;9.50;99.90;;;;;;5024251;28;20560;-42
2023/12/16 12:40:20;;;;;;;19.42;4.88;;;9.50;99.90;;;;;;5040428;28;20049;-44